sensor_id;sensor_type;location;lat;lon;timestamp;pressure;altitude;pressure_sealevel;temperature;humidity
73824;BME280;62154;54.914;73.444;2022-11-15T00:00:36;97081.88;;;2.41;100.00
73824;BME280;62154;54.914;73.444;2022-11-15T00:03:27;97118.56;;;2.62;100.00
73824;BME280;62154;54.914;73.444;2022-11-15T00:06:13;97136.16;;;2.66;100.00
73824;BME280;62154;54.914;73.444;2022-11-15T00:09:11;97119.16;;;2.64;100.00
73824;BME280;62154;54.914;73.444;2022-11-15T00:11:56;97125.03;;;2.73;100.00
73824;BME280;62154;54.914;73.444;2022-11-15T00:14:42;97120.88;;;2.70;100.00
73824;BME280;62154;54.914;73.444;2022-11-15T00:17:37;97064.00;;;2.33;100.00
73824;BME280;62154;54.914;73.444;2022-11-15T00:20:22;97117.56;;;2.68;100.00
73824;BME280;62154;54.914;73.444;2022-11-15T00:23:08;97067.03;;;2.37;100.00
73824;BME280;62154;54.914;73.444;2022-11-15T00:25:58;97120.88;;;2.70;100.00
73824;BME280;62154;54.914;73.444;2022-11-15T00:28:43;97096.03;;;2.55;100.00
73824;BME280;62154;54.914;73.444;2022-11-15T00:31:30;97061.47;;;2.32;100.00
73824;BME280;62154;54.914;73.444;2022-11-15T00:34:15;97045.25;;;2.25;100.00
73824;BME280;62154;54.914;73.444;2022-11-15T00:37:07;97108.19;;;2.64;100.00
73824;BME280;62154;54.914;73.444;2022-11-15T00:39:52;97098.00;;;2.59;100.00
73824;BME280;62154;54.914;73.444;2022-11-15T00:42:43;97068.13;;;2.36;100.00
73824;BME280;62154;54.914;73.444;2022-11-15T00:45:29;97051.78;;;2.24;100.00
73824;BME280;62154;54.914;73.444;2022-11-15T00:48:14;97072.34;;;2.26;100.00
73824;BME280;62154;54.914;73.444;2022-11-15T00:51:00;97117.06;;;2.54;100.00
73824;BME280;62154;54.914;73.444;2022-11-15T00:53:45;97064.38;;;2.25;100.00
73824;BME280;62154;54.914;73.444;2022-11-15T00:56:36;97108.53;;;2.51;100.00
73824;BME280;62154;54.914;73.444;2022-11-15T00:59:22;97110.19;;;2.52;100.00
73824;BME280;62154;54.914;73.444;2022-11-15T01:02:08;97111.25;;;2.51;100.00
73824;BME280;62154;54.914;73.444;2022-11-15T01:04:53;97102.50;;;2.49;100.00
73824;BME280;62154;54.914;73.444;2022-11-15T01:07:39;97100.50;;;2.44;100.00
73824;BME280;62154;54.914;73.444;2022-11-15T01:10:24;97100.31;;;2.51;100.00
73824;BME280;62154;54.914;73.444;2022-11-15T01:13:16;97048.97;;;2.19;100.00
73824;BME280;62154;54.914;73.444;2022-11-15T01:16:13;97071.16;;;2.39;100.00
73824;BME280;62154;54.914;73.444;2022-11-15T01:19:10;97043.34;;;2.08;100.00
73824;BME280;62154;54.914;73.444;2022-11-15T01:21:56;97099.09;;;2.41;100.00
73824;BME280;62154;54.914;73.444;2022-11-15T01:24:41;97031.75;;;2.01;100.00
73824;BME280;62154;54.914;73.444;2022-11-15T01:27:36;97087.09;;;2.42;100.00
73824;BME280;62154;54.914;73.444;2022-11-15T01:30:22;97090.97;;;2.47;100.00
73824;BME280;62154;54.914;73.444;2022-11-15T01:33:08;97034.63;;;2.11;100.00
73824;BME280;62154;54.914;73.444;2022-11-15T01:35:53;97101.19;;;2.51;100.00
73824;BME280;62154;54.914;73.444;2022-11-15T01:38:39;97100.31;;;2.51;100.00
73824;BME280;62154;54.914;73.444;2022-11-15T01:41:37;97039.13;;;2.18;100.00
73824;BME280;62154;54.914;73.444;2022-11-15T01:47:29;97086.00;;;2.43;100.00
73824;BME280;62154;54.914;73.444;2022-11-15T01:50:21;97086.66;;;2.51;100.00
73824;BME280;62154;54.914;73.444;2022-11-15T01:53:07;97086.91;;;2.49;100.00
73824;BME280;62154;54.914;73.444;2022-11-15T01:55:53;97025.81;;;2.04;100.00
73824;BME280;62154;54.914;73.444;2022-11-15T01:58:40;97096.78;;;2.50;100.00
73824;BME280;62154;54.914;73.444;2022-11-15T02:01:28;97090.50;;;2.50;100.00
73824;BME280;62154;54.914;73.444;2022-11-15T02:04:30;97083.28;;;2.43;100.00
73824;BME280;62154;54.914;73.444;2022-11-15T02:07:19;97095.63;;;2.46;100.00
73824;BME280;62154;54.914;73.444;2022-11-15T02:10:22;97049.22;;;2.17;100.00
73824;BME280;62154;54.914;73.444;2022-11-15T02:13:07;97101.91;;;2.47;100.00
73824;BME280;62154;54.914;73.444;2022-11-15T02:22:37;97111.59;;;2.54;100.00
73824;BME280;62154;54.914;73.444;2022-11-15T02:28:48;97109.38;;;2.51;100.00
73824;BME280;62154;54.914;73.444;2022-11-15T02:37:36;97104.16;;;2.33;100.00
73824;BME280;62154;54.914;73.444;2022-11-15T02:40:27;97121.22;;;2.40;100.00
73824;BME280;62154;54.914;73.444;2022-11-15T02:43:24;97105.81;;;2.34;100.00
73824;BME280;62154;54.914;73.444;2022-11-15T02:46:38;97124.28;;;2.43;100.00
73824;BME280;62154;54.914;73.444;2022-11-15T02:49:54;97119.66;;;2.44;100.00
73824;BME280;62154;54.914;73.444;2022-11-15T02:52:45;97103.97;;;2.39;100.00
73824;BME280;62154;54.914;73.444;2022-11-15T02:55:37;97056.03;;;2.15;100.00
73824;BME280;62154;54.914;73.444;2022-11-15T02:58:37;97117.41;;;2.58;100.00
73824;BME280;62154;54.914;73.444;2022-11-15T03:07:36;97121.47;;;2.55;100.00
73824;BME280;62154;54.914;73.444;2022-11-15T03:10:36;97126.13;;;2.55;100.00
73824;BME280;62154;54.914;73.444;2022-11-15T03:13:33;97121.88;;;2.64;100.00
73824;BME280;62154;54.914;73.444;2022-11-15T03:16:36;97121.06;;;2.64;100.00
73824;BME280;62154;54.914;73.444;2022-11-15T03:19:32;97071.41;;;2.38;100.00
73824;BME280;62154;54.914;73.444;2022-11-15T03:22:24;97084.28;;;2.37;100.00
73824;BME280;62154;54.914;73.444;2022-11-15T03:25:19;97109.28;;;2.63;100.00
73824;BME280;62154;54.914;73.444;2022-11-15T03:28:07;97122.78;;;2.70;100.00
73824;BME280;62154;54.914;73.444;2022-11-15T03:30:55;97131.09;;;2.75;100.00
73824;BME280;62154;54.914;73.444;2022-11-15T03:33:42;97126.03;;;2.67;100.00
73824;BME280;62154;54.914;73.444;2022-11-15T03:36:30;97110.13;;;2.64;100.00
73824;BME280;62154;54.914;73.444;2022-11-15T03:39:18;97131.50;;;2.67;100.00
73824;BME280;62154;54.914;73.444;2022-11-15T03:42:27;97058.19;;;2.30;100.00
73824;BME280;62154;54.914;73.444;2022-11-15T03:48:08;97118.81;;;2.77;100.00
73824;BME280;62154;54.914;73.444;2022-11-15T03:50:56;97135.72;;;2.74;100.00
73824;BME280;62154;54.914;73.444;2022-11-15T03:53:42;97105.63;;;2.74;100.00
73824;BME280;62154;54.914;73.444;2022-11-15T03:56:28;97061.88;;;2.40;100.00
73824;BME280;62154;54.914;73.444;2022-11-15T03:59:14;97121.63;;;2.83;100.00
73824;BME280;62154;54.914;73.444;2022-11-15T04:01:59;97113.91;;;2.80;100.00
73824;BME280;62154;54.914;73.444;2022-11-15T04:04:45;97121.84;;;2.81;100.00
73824;BME280;62154;54.914;73.444;2022-11-15T04:07:30;97124.28;;;2.77;100.00
73824;BME280;62154;54.914;73.444;2022-11-15T04:10:16;97096.13;;;2.60;100.00
73824;BME280;62154;54.914;73.444;2022-11-15T04:13:03;97127.09;;;2.83;100.00
73824;BME280;62154;54.914;73.444;2022-11-15T04:15:49;97069.69;;;2.49;100.00
73824;BME280;62154;54.914;73.444;2022-11-15T04:18:34;97126.31;;;2.87;100.00
73824;BME280;62154;54.914;73.444;2022-11-15T04:21:20;97135.72;;;2.91;100.00
73824;BME280;62154;54.914;73.444;2022-11-15T04:24:24;97133.19;;;2.90;100.00
73824;BME280;62154;54.914;73.444;2022-11-15T04:27:09;97130.66;;;2.83;100.00
73824;BME280;62154;54.914;73.444;2022-11-15T04:29:57;97145.06;;;2.78;100.00
73824;BME280;62154;54.914;73.444;2022-11-15T04:32:43;97127.03;;;2.77;100.00
73824;BME280;62154;54.914;73.444;2022-11-15T04:35:29;97135.78;;;2.80;100.00
73824;BME280;62154;54.914;73.444;2022-11-15T04:38:17;97130.84;;;2.76;100.00
73824;BME280;62154;54.914;73.444;2022-11-15T04:41:03;97144.91;;;2.85;100.00
73824;BME280;62154;54.914;73.444;2022-11-15T04:43:54;97142.41;;;2.84;100.00
73824;BME280;62154;54.914;73.444;2022-11-15T04:46:39;97144.16;;;2.90;100.00
73824;BME280;62154;54.914;73.444;2022-11-15T04:49:29;97064.22;;;2.49;100.00
73824;BME280;62154;54.914;73.444;2022-11-15T04:52:15;97142.81;;;2.92;100.00
73824;BME280;62154;54.914;73.444;2022-11-15T04:55:01;97129.31;;;2.86;100.00
73824;BME280;62154;54.914;73.444;2022-11-15T04:57:46;97139.53;;;2.90;100.00
73824;BME280;62154;54.914;73.444;2022-11-15T05:00:32;97094.44;;;2.59;100.00
73824;BME280;62154;54.914;73.444;2022-11-15T05:03:20;97149.69;;;2.95;100.00
73824;BME280;62154;54.914;73.444;2022-11-15T05:06:24;97155.69;;;2.92;100.00
73824;BME280;62154;54.914;73.444;2022-11-15T05:09:10;97154.88;;;2.91;100.00
73824;BME280;62154;54.914;73.444;2022-11-15T05:11:58;97159.00;;;2.94;100.00
73824;BME280;62154;54.914;73.444;2022-11-15T05:14:43;97160.50;;;3.02;100.00
73824;BME280;62154;54.914;73.444;2022-11-15T05:17:29;97162.16;;;3.03;100.00
73824;BME280;62154;54.914;73.444;2022-11-15T05:20:14;97150.34;;;3.02;100.00
73824;BME280;62154;54.914;73.444;2022-11-15T05:23:00;97161.03;;;3.04;100.00
73824;BME280;62154;54.914;73.444;2022-11-15T05:25:46;97113.81;;;2.74;100.00
73824;BME280;62154;54.914;73.444;2022-11-15T05:28:32;97115.81;;;2.79;100.00
73824;BME280;62154;54.914;73.444;2022-11-15T05:31:18;97154.31;;;3.12;100.00
73824;BME280;62154;54.914;73.444;2022-11-15T05:34:09;97154.31;;;3.12;100.00
73824;BME280;62154;54.914;73.444;2022-11-15T05:36:55;97167.97;;;3.29;100.00
73824;BME280;62154;54.914;73.444;2022-11-15T05:39:40;97175.44;;;3.33;100.00
73824;BME280;62154;54.914;73.444;2022-11-15T05:42:26;97105.34;;;2.93;100.00
73824;BME280;62154;54.914;73.444;2022-11-15T05:45:13;97170.25;;;3.37;100.00
73824;BME280;62154;54.914;73.444;2022-11-15T05:48:09;97171.88;;;3.33;100.00
73824;BME280;62154;54.914;73.444;2022-11-15T05:50:56;97170.53;;;3.35;100.00
73824;BME280;62154;54.914;73.444;2022-11-15T05:53:42;97173.84;;;3.37;100.00
73824;BME280;62154;54.914;73.444;2022-11-15T05:56:29;97175.00;;;3.41;100.00
73824;BME280;62154;54.914;73.444;2022-11-15T05:59:14;97103.75;;;2.97;100.00
73824;BME280;62154;54.914;73.444;2022-11-15T06:02:00;97184.63;;;3.44;100.00
73824;BME280;62154;54.914;73.444;2022-11-15T06:04:46;97113.84;;;3.14;100.00
73824;BME280;62154;54.914;73.444;2022-11-15T06:07:32;97156.75;;;3.30;100.00
73824;BME280;62154;54.914;73.444;2022-11-15T06:10:17;97187.88;;;3.41;100.00
73824;BME280;62154;54.914;73.444;2022-11-15T06:13:04;97182.94;;;3.43;100.00
73824;BME280;62154;54.914;73.444;2022-11-15T06:15:50;97169.19;;;3.38;100.00
73824;BME280;62154;54.914;73.444;2022-11-15T06:18:36;97170.47;;;3.30;100.00
73824;BME280;62154;54.914;73.444;2022-11-15T06:21:32;97181.19;;;3.15;100.00
73824;BME280;62154;54.914;73.444;2022-11-15T06:24:17;97191.41;;;3.19;100.00
73824;BME280;62154;54.914;73.444;2022-11-15T06:27:03;97174.38;;;3.17;100.00
73824;BME280;62154;54.914;73.444;2022-11-15T06:29:49;97178.59;;;3.25;100.00
73824;BME280;62154;54.914;73.444;2022-11-15T06:32:41;97173.47;;;3.29;100.00
73824;BME280;62154;54.914;73.444;2022-11-15T06:35:27;97182.13;;;3.42;100.00
73824;BME280;62154;54.914;73.444;2022-11-15T06:38:12;97183.81;;;3.43;100.00
73824;BME280;62154;54.914;73.444;2022-11-15T06:41:03;97170.53;;;3.35;100.00
73824;BME280;62154;54.914;73.444;2022-11-15T06:43:49;97171.38;;;3.36;100.00
73824;BME280;62154;54.914;73.444;2022-11-15T06:46:35;97074.78;;;2.79;100.00
73824;BME280;62154;54.914;73.444;2022-11-15T06:49:21;97177.66;;;3.36;100.00
73824;BME280;62154;54.914;73.444;2022-11-15T06:52:06;97122.72;;;3.04;100.00
73824;BME280;62154;54.914;73.444;2022-11-15T06:54:52;97135.41;;;3.10;100.00
73824;BME280;62154;54.914;73.444;2022-11-15T06:57:49;97175.44;;;3.33;100.00
73824;BME280;62154;54.914;73.444;2022-11-15T07:00:45;97175.34;;;3.28;100.00
73824;BME280;62154;54.914;73.444;2022-11-15T07:03:31;97112.63;;;2.87;100.00
73824;BME280;62154;54.914;73.444;2022-11-15T07:06:16;97188.22;;;3.28;100.00
73824;BME280;62154;54.914;73.444;2022-11-15T07:09:03;97171.91;;;3.16;100.00
73824;BME280;62154;54.914;73.444;2022-11-15T07:11:48;97171.59;;;3.12;100.00
73824;BME280;62154;54.914;73.444;2022-11-15T07:14:34;97173.25;;;3.13;100.00
73824;BME280;62154;54.914;73.444;2022-11-15T07:17:25;97191.41;;;3.19;100.00
73824;BME280;62154;54.914;73.444;2022-11-15T07:20:17;97193.63;;;3.22;100.00
73824;BME280;62154;54.914;73.444;2022-11-15T07:23:08;97196.09;;;3.24;100.00
73824;BME280;62154;54.914;73.444;2022-11-15T07:25:56;97160.16;;;2.98;100.00
73824;BME280;62154;54.914;73.444;2022-11-15T07:28:42;97185.28;;;3.12;100.00
73824;BME280;62154;54.914;73.444;2022-11-15T07:31:38;97147.47;;;2.92;100.00
73824;BME280;62154;54.914;73.444;2022-11-15T07:34:24;97197.09;;;3.18;100.00
73824;BME280;62154;54.914;73.444;2022-11-15T07:37:10;97138.25;;;2.81;100.00
73824;BME280;62154;54.914;73.444;2022-11-15T07:39:56;97138.53;;;2.80;100.00
73824;BME280;62154;54.914;73.444;2022-11-15T07:42:42;97141.44;;;2.73;100.00
73824;BME280;62154;54.914;73.444;2022-11-15T07:45:45;97142.69;;;2.65;100.00
73824;BME280;62154;54.914;73.444;2022-11-15T07:48:40;97205.16;;;3.07;100.00
73824;BME280;62154;54.914;73.444;2022-11-15T07:51:27;97219.72;;;3.08;100.00
73824;BME280;62154;54.914;73.444;2022-11-15T07:54:16;97212.97;;;2.99;100.00
73824;BME280;62154;54.914;73.444;2022-11-15T07:57:12;97214.97;;;3.03;100.00
73824;BME280;62154;54.914;73.444;2022-11-15T07:59:57;97225.66;;;3.05;100.00
73824;BME280;62154;54.914;73.444;2022-11-15T08:02:43;97226.50;;;3.05;100.00
73824;BME280;62154;54.914;73.444;2022-11-15T08:05:28;97166.88;;;2.73;100.00
73824;BME280;62154;54.914;73.444;2022-11-15T08:08:14;97233.13;;;3.09;100.00
73824;BME280;62154;54.914;73.444;2022-11-15T08:11:00;97216.78;;;2.98;100.00
73824;BME280;62154;54.914;73.444;2022-11-15T08:13:45;97228.06;;;3.01;100.00
73824;BME280;62154;54.914;73.444;2022-11-15T08:16:40;97231.91;;;3.00;100.00
73824;BME280;62154;54.914;73.444;2022-11-15T08:19:31;97232.38;;;2.97;100.00
73824;BME280;62154;54.914;73.444;2022-11-15T08:22:17;97245.59;;;3.00;100.00
73824;BME280;62154;54.914;73.444;2022-11-15T08:25:03;97251.06;;;3.00;100.00
73824;BME280;62154;54.914;73.444;2022-11-15T08:27:51;97251.28;;;2.99;100.00
73824;BME280;62154;54.914;73.444;2022-11-15T08:30:39;97255.34;;;2.96;100.00
73824;BME280;62154;54.914;73.444;2022-11-15T08:33:32;97205.94;;;2.69;100.00
73824;BME280;62154;54.914;73.444;2022-11-15T08:36:18;97258.09;;;2.96;100.00
73824;BME280;62154;54.914;73.444;2022-11-15T08:39:14;97248.47;;;2.93;100.00
73824;BME280;62154;54.914;73.444;2022-11-15T08:41:59;97255.44;;;2.84;100.00
73824;BME280;62154;54.914;73.444;2022-11-15T08:44:45;97254.59;;;2.84;100.00
73824;BME280;62154;54.914;73.444;2022-11-15T08:47:31;97261.09;;;2.94;100.00
73824;BME280;62154;54.914;73.444;2022-11-15T08:50:25;97199.63;;;2.51;100.00
73824;BME280;62154;54.914;73.444;2022-11-15T08:53:21;97271.59;;;2.86;100.00
73824;BME280;62154;54.914;73.444;2022-11-15T08:56:12;97277.06;;;2.86;100.00
73824;BME280;62154;54.914;73.444;2022-11-15T08:59:00;97252.09;;;2.65;100.00
73824;BME280;62154;54.914;73.444;2022-11-15T09:01:45;97227.34;;;2.43;100.00
73824;BME280;62154;54.914;73.444;2022-11-15T09:04:31;97285.09;;;2.75;100.00
73824;BME280;62154;54.914;73.444;2022-11-15T09:07:17;97280.72;;;2.74;100.00
73824;BME280;62154;54.914;73.444;2022-11-15T09:10:03;97292.25;;;2.76;100.00
73824;BME280;62154;54.914;73.444;2022-11-15T09:12:49;97279.28;;;2.72;100.00
73824;BME280;62154;54.914;73.444;2022-11-15T09:15:35;97305.41;;;2.80;100.00
73824;BME280;62154;54.914;73.444;2022-11-15T09:18:21;97305.94;;;2.76;100.00
73824;BME280;62154;54.914;73.444;2022-11-15T09:21:08;97310.22;;;2.72;100.00
73824;BME280;62154;54.914;73.444;2022-11-15T09:24:05;97313.63;;;2.80;100.00
73824;BME280;62154;54.914;73.444;2022-11-15T09:26:52;97255.44;;;2.38;100.00
73824;BME280;62154;54.914;73.444;2022-11-15T09:29:38;97317.34;;;2.73;100.00
73824;BME280;62154;54.914;73.444;2022-11-15T09:32:23;97329.03;;;2.69;100.00
73824;BME280;62154;54.914;73.444;2022-11-15T09:35:13;97318.72;;;2.59;100.00
73824;BME280;62154;54.914;73.444;2022-11-15T09:37:59;97322.78;;;2.56;100.00
73824;BME280;62154;54.914;73.444;2022-11-15T09:40:48;97329.81;;;2.52;100.00
73824;BME280;62154;54.914;73.444;2022-11-15T09:50:11;97294.00;;;2.25;100.00
73824;BME280;62154;54.914;73.444;2022-11-15T09:52:43;97345.47;;;2.57;100.00
73824;BME280;62154;54.914;73.444;2022-11-15T09:55:12;97293.66;;;2.21;100.00
73824;BME280;62154;54.914;73.444;2022-11-15T10:00:22;97376.75;;;2.61;100.00
73824;BME280;62154;54.914;73.444;2022-11-15T10:05:43;97372.84;;;2.57;100.00
73824;BME280;62154;54.914;73.444;2022-11-15T10:10:59;97334.50;;;2.28;100.00
73824;BME280;62154;54.914;73.444;2022-11-15T10:13:32;97371.66;;;2.53;100.00
73824;BME280;62154;54.914;73.444;2022-11-15T10:24:20;97343.00;;;2.15;100.00
73824;BME280;62154;54.914;73.444;2022-11-15T10:26:55;97374.69;;;2.27;100.00
73824;BME280;62154;54.914;73.444;2022-11-15T10:29:24;97357.97;;;2.12;100.00
73824;BME280;62154;54.914;73.444;2022-11-15T10:31:57;97407.81;;;2.43;100.00
73824;BME280;62154;54.914;73.444;2022-11-15T10:34:35;97407.63;;;2.44;100.00
73824;BME280;62154;54.914;73.444;2022-11-15T10:37:03;97409.75;;;2.42;100.00
73824;BME280;62154;54.914;73.444;2022-11-15T10:39:30;97405.44;;;2.47;100.00
73824;BME280;62154;54.914;73.444;2022-11-15T10:42:26;97416.88;;;2.43;100.00
73824;BME280;62154;54.914;73.444;2022-11-15T10:44:54;97421.63;;;2.36;100.00
73824;BME280;62154;54.914;73.444;2022-11-15T10:47:27;97441.38;;;2.38;100.00
73824;BME280;62154;54.914;73.444;2022-11-15T10:50:00;97448.50;;;2.39;100.00
73824;BME280;62154;54.914;73.444;2022-11-15T10:52:29;97440.19;;;2.34;100.00
73824;BME280;62154;54.914;73.444;2022-11-15T10:55:22;97397.78;;;1.96;100.00
73824;BME280;62154;54.914;73.444;2022-11-15T10:58:19;97457.06;;;2.31;100.00
73824;BME280;62154;54.914;73.444;2022-11-15T11:00:55;97463.34;;;2.32;100.00
73824;BME280;62154;54.914;73.444;2022-11-15T11:03:29;97465.03;;;2.33;100.00
73824;BME280;62154;54.914;73.444;2022-11-15T11:06:14;97481.06;;;2.29;100.00
73824;BME280;62154;54.914;73.444;2022-11-15T11:09:00;97435.59;;;1.99;100.00
73824;BME280;62154;54.914;73.444;2022-11-15T11:11:51;97469.34;;;2.17;100.00
73824;BME280;62154;54.914;73.444;2022-11-15T11:14:28;97483.56;;;2.19;100.00
73824;BME280;62154;54.914;73.444;2022-11-15T11:30:32;97517.06;;;2.02;100.00
73824;BME280;62154;54.914;73.444;2022-11-15T11:38:34;97536.78;;;1.92;100.00
73824;BME280;62154;54.914;73.444;2022-11-15T11:47:03;97548.19;;;1.89;100.00
73824;BME280;62154;54.914;73.444;2022-11-15T11:49:40;97549.88;;;1.90;100.00
73824;BME280;62154;54.914;73.444;2022-11-15T11:52:17;97535.22;;;1.85;100.00
73824;BME280;62154;54.914;73.444;2022-11-15T11:55:05;97547.13;;;1.90;100.00
73824;BME280;62154;54.914;73.444;2022-11-15T12:00:35;97549.75;;;1.97;100.00
73824;BME280;62154;54.914;73.444;2022-11-15T12:03:24;97567.56;;;2.00;100.00
73824;BME280;62154;54.914;73.444;2022-11-15T12:06:01;97542.84;;;1.83;100.00
73824;BME280;62154;54.914;73.444;2022-11-15T12:08:59;97571.50;;;2.04;100.00
73824;BME280;62154;54.914;73.444;2022-11-15T12:11:43;97516.53;;;1.70;100.00
73824;BME280;62154;54.914;73.444;2022-11-15T12:14:42;97527.47;;;1.70;100.00
73824;BME280;62154;54.914;73.444;2022-11-15T12:17:26;97583.72;;;2.01;100.00
73824;BME280;62154;54.914;73.444;2022-11-15T12:20:06;97585.53;;;2.07;100.00
73824;BME280;62154;54.914;73.444;2022-11-15T12:23:35;97593.72;;;2.07;100.00
73824;BME280;62154;54.914;73.444;2022-11-15T12:26:11;97596.81;;;1.99;100.00
73824;BME280;62154;54.914;73.444;2022-11-15T12:29:09;97608.94;;;2.03;100.00
73824;BME280;62154;54.914;73.444;2022-11-15T12:31:42;97624.72;;;2.01;100.00
73824;BME280;62154;54.914;73.444;2022-11-15T12:36:50;97573.22;;;1.74;100.00
73824;BME280;62154;54.914;73.444;2022-11-15T12:39:20;97559.41;;;1.69;100.00
73824;BME280;62154;54.914;73.444;2022-11-15T12:52:06;97636.94;;;1.99;100.00
73824;BME280;62154;54.914;73.444;2022-11-15T13:02:35;97660.38;;;2.06;100.00
73824;BME280;62154;54.914;73.444;2022-11-15T13:17:49;97630.91;;;1.66;100.00
73824;BME280;62154;54.914;73.444;2022-11-15T13:20:35;97635.44;;;1.72;100.00
73824;BME280;62154;54.914;73.444;2022-11-15T13:23:10;97639.69;;;1.68;100.00
73824;BME280;62154;54.914;73.444;2022-11-15T13:28:57;97688.59;;;1.88;100.00
73824;BME280;62154;54.914;73.444;2022-11-15T13:31:34;97711.13;;;2.02;100.00
73824;BME280;62154;54.914;73.444;2022-11-15T13:34:21;97708.63;;;2.01;100.00
73824;BME280;62154;54.914;73.444;2022-11-15T13:36:51;97701.44;;;1.88;100.00
73824;BME280;62154;54.914;73.444;2022-11-15T13:39:30;97725.94;;;1.94;100.00
73824;BME280;62154;54.914;73.444;2022-11-15T13:42:15;97673.84;;;1.59;100.00
73824;BME280;62154;54.914;73.444;2022-11-15T13:44:57;97666.19;;;1.49;100.00
73824;BME280;62154;54.914;73.444;2022-11-15T13:47:28;97735.44;;;1.92;100.00
73824;BME280;62154;54.914;73.444;2022-11-15T13:50:05;97743.00;;;1.90;100.00
73824;BME280;62154;54.914;73.444;2022-11-15T13:52:36;97743.72;;;1.85;100.00
73824;BME280;62154;54.914;73.444;2022-11-15T13:55:21;97746.66;;;1.84;100.00
73824;BME280;62154;54.914;73.444;2022-11-15T14:00:43;97750.75;;;1.74;100.00
73824;BME280;62154;54.914;73.444;2022-11-15T14:03:27;97666.59;;;1.16;100.00
73824;BME280;62154;54.914;73.444;2022-11-15T14:06:09;97773.69;;;1.73;100.00
73824;BME280;62154;54.914;73.444;2022-11-15T14:08:41;97777.50;;;1.72;100.00
73824;BME280;62154;54.914;73.444;2022-11-15T14:11:19;97785.50;;;1.67;100.00
73824;BME280;62154;54.914;73.444;2022-11-15T14:16:45;97786.44;;;1.61;100.00
73824;BME280;62154;54.914;73.444;2022-11-15T14:19:34;97795.53;;;1.55;100.00
73824;BME280;62154;54.914;73.444;2022-11-15T14:22:24;97788.09;;;1.43;100.00
73824;BME280;62154;54.914;73.444;2022-11-15T14:27:44;97801.03;;;1.48;100.00
73824;BME280;62154;54.914;73.444;2022-11-15T14:30:16;97806.31;;;1.50;100.00
73824;BME280;62154;54.914;73.444;2022-11-15T14:32:51;97813.88;;;1.48;100.00
73824;BME280;62154;54.914;73.444;2022-11-15T14:35:21;97812.19;;;1.46;100.00
73824;BME280;62154;54.914;73.444;2022-11-15T14:37:49;97726.25;;;0.87;100.00
73824;BME280;62154;54.914;73.444;2022-11-15T14:40:18;97742.94;;;0.97;100.00
73824;BME280;62154;54.914;73.444;2022-11-15T14:42:47;97770.56;;;1.07;100.00
73824;BME280;62154;54.914;73.444;2022-11-15T14:45:19;97838.28;;;1.42;100.00
73824;BME280;62154;54.914;73.444;2022-11-15T14:47:47;97772.72;;;0.98;100.00
73824;BME280;62154;54.914;73.444;2022-11-15T14:50:20;97835.41;;;1.37;100.00
73824;BME280;62154;54.914;73.444;2022-11-15T14:52:53;97844.00;;;1.34;100.00
73824;BME280;62154;54.914;73.444;2022-11-15T14:58:03;97845.53;;;1.30;100.00
73824;BME280;62154;54.914;73.444;2022-11-15T15:00:31;97847.22;;;1.31;100.00
73824;BME280;62154;54.914;73.444;2022-11-15T15:03:09;97846.66;;;1.22;100.00
73824;BME280;62154;54.914;73.444;2022-11-15T15:05:42;97850.59;;;1.26;100.00
73824;BME280;62154;54.914;73.444;2022-11-15T15:08:19;97849.38;;;1.22;100.00
73824;BME280;62154;54.914;73.444;2022-11-15T15:10:58;97853.22;;;1.14;100.00
73824;BME280;62154;54.914;73.444;2022-11-15T15:13:38;97856.22;;;1.06;100.00
73824;BME280;62154;54.914;73.444;2022-11-15T15:16:15;97811.53;;;0.75;100.00
73824;BME280;62154;54.914;73.444;2022-11-15T15:18:47;97883.50;;;1.06;100.00
73824;BME280;62154;54.914;73.444;2022-11-15T15:21:26;97822.91;;;0.72;100.00
73824;BME280;62154;54.914;73.444;2022-11-15T15:23:57;97848.44;;;0.78;100.00
73824;BME280;62154;54.914;73.444;2022-11-15T15:26:24;97838.69;;;0.63;100.00
73824;BME280;62154;54.914;73.444;2022-11-15T15:28:51;97885.28;;;0.94;100.00
73824;BME280;62154;54.914;73.444;2022-11-15T15:31:19;97887.78;;;0.95;100.00
73824;BME280;62154;54.914;73.444;2022-11-15T15:33:46;97897.06;;;0.88;100.00
73824;BME280;62154;54.914;73.444;2022-11-15T15:36:17;97896.66;;;0.84;100.00
73824;BME280;62154;54.914;73.444;2022-11-15T15:38:44;97901.25;;;0.84;100.00
73824;BME280;62154;54.914;73.444;2022-11-15T15:41:14;97895.44;;;0.73;100.00
73824;BME280;62154;54.914;73.444;2022-11-15T15:43:42;97918.09;;;0.80;100.00
73824;BME280;62154;54.914;73.444;2022-11-15T15:46:15;97921.84;;;0.79;100.00
73824;BME280;62154;54.914;73.444;2022-11-15T15:48:47;97906.19;;;0.68;100.00
73824;BME280;62154;54.914;73.444;2022-11-15T15:51:24;97852.50;;;0.23;100.00
73824;BME280;62154;54.914;73.444;2022-11-15T15:53:52;97939.09;;;0.73;100.00
73824;BME280;62154;54.914;73.444;2022-11-15T15:56:23;97945.63;;;0.72;100.00
73824;BME280;62154;54.914;73.444;2022-11-15T15:58:53;97937.03;;;0.69;100.00
73824;BME280;62154;54.914;73.444;2022-11-15T16:01:21;97884.75;;;0.33;100.00
73824;BME280;62154;54.914;73.444;2022-11-15T16:03:58;97906.94;;;0.43;100.00
73824;BME280;62154;54.914;73.444;2022-11-15T16:06:38;97926.41;;;0.54;100.00
73824;BME280;62154;54.914;73.444;2022-11-15T16:09:17;97954.66;;;0.66;100.00
73824;BME280;62154;54.914;73.444;2022-11-15T16:11:45;97901.97;;;0.27;100.00
73824;BME280;62154;54.914;73.444;2022-11-15T16:14:22;97901.78;;;0.22;100.00
73824;BME280;62154;54.914;73.444;2022-11-15T16:16:49;97964.13;;;0.57;100.00
73824;BME280;62154;54.914;73.444;2022-11-15T16:19:17;97979.44;;;0.58;100.00
73824;BME280;62154;54.914;73.444;2022-11-15T16:21:44;97987.38;;;0.59;100.00
73824;BME280;62154;54.914;73.444;2022-11-15T16:24:22;97977.38;;;0.46;100.00